Historyczne dane pomiarowe

Dodano dane terminowe – wersja testowa.

Dane z okresu 1951-2019

Wersja bazy: 1.34 [2019-03-16, lista zmian], aktualizacja planowana na 2019-04-15

Dane meteo z obszaru Polski uzyskane na podstawie danych udostępnionych przez Instytut Meteorologii i Gospodarki Wodnej – Państwowy Instytut Badawczy.

 

Wybierz Datę:    

       

TemperaturaWilgotnośćWiatrCiśnienieOpadyŚniegCzas trwania zjawisk
 Stacja t tx tn tng RH VA  wxwx mslp ppp RRR   cm mm wxwxwxwxwxwxwx
1961-08-14 11.5 15.6 4.8 1.6 74.8- 4.3 2.7---- 0.3------------
1961-08-13 9.0 12.0 7.3 8.1 93.3- 7.0 1.3---- 3.5------------
1961-08-12 11.9 16.2 10.2 9.1 99.0- 6.7 0.0---- 18.6------------
1961-08-11 15.0 19.6 13.2 14.7 99.0- 6.3 0.0---- 21.2------------
1961-08-10 20.1 25.0 15.0 11.2 86.5- 4.7 0.3---- 6.2------------
1961-08-09 17.9 21.9 14.8 9.9 88.3- 6.3 0.0---- 0.1------------
1961-08-08 17.8 22.5 8.9 5.2 74.3- 4.0 2.0---- 0.0------------
1961-08-07 15.1 21.7 12.9 12.4 88.3- 6.7 1.0---- 1.9------------
1961-08-06 22.6 26.3 17.0 9.8 58.8- 1.0 1.3---- 2.6------------
1961-08-05 17.7 21.3 12.3 6.6 75.0- 3.7 2.7---- 0.0------------
1961-08-04 13.4 15.4 7.2 2.0 72.5- 6.3 2.3---- 2.9------------
1961-08-03 10.9 13.6 8.7 6.9 85.5- 4.3 1.3---- 0.1------------
1961-08-02 13.5 20.7 9.7 4.2 87.8- 4.0 0.3---- 2.6------------
1961-08-01 12.6 17.2 8.6 4.1 71.8- 3.0 1.3---- 0.0------------
1961-07-31 9.9 13.0 8.3 8.1 88.3- 7.0 4.3---- 8.4------------
1961-07-30 9.1 11.1 6.9 4.6 93.0- 8.0 0.3---- 35.9------------
1961-07-29 8.6 12.0 7.0 6.6 87.5- 5.0 1.7---- 0.2------------
1961-07-28 12.7 16.6 10.2 7.1 92.8- 7.0 2.0---- 33.7------------
1961-07-27 15.5 20.0 12.6 7.9 81.5- 5.7 3.3---- 24.1------------
1961-07-26 16.2 19.6 7.6 2.7 61.5- 4.3 1.7---- 0.0------------
1961-07-25 9.5 12.9 7.9 7.9 78.0- 5.3 2.3---- 0.0------------
1961-07-24 10.0 11.8 8.5 6.1 80.0- 7.3 1.3---- 0.0------------
1961-07-23 10.8 12.3 6.5 2.0 80.5- 6.0 3.0---- 0.0------------
1961-07-22 10.9 13.7 9.5 9.9 84.8- 6.7 1.3---- 0.0------------
1961-07-21 11.2 12.7 8.0 5.8 85.0- 7.0 2.7---- 0.3------------
1961-07-20 11.1 14.4 8.2 4.1 90.0- 6.3 0.0---- 9.7------------
1961-07-19 10.7 15.3 8.8 8.2 86.3- 5.7 0.3---- 0.2------------
1961-07-18 11.4 15.7 8.8 5.1 83.3- 7.0 0.3---- 1.7------------
1961-07-17 10.0 12.8 8.6 4.5 84.0- 7.0 2.7---- 5.7------------
1961-07-16 13.0 17.6 8.4 7.4 73.0- 3.7 2.3---- 1.2------------
1961-07-15 14.7 19.8 11.8 9.3 78.0- 5.0 2.3---- 13.8------------
1961-07-14 12.7 16.3 8.3 7.4 64.8- 6.3 6.3---- 0.9------------
1961-07-13 15.7 19.9 13.1 12.3 76.0- 6.7 6.0---- 1.9------------
1961-07-12 19.2 23.7 12.6 9.7 75.3- 1.3 1.7---- 0.0------------
1961-07-11 16.2 20.2 7.9 3.3 69.0- 6.7 3.3---- 32.2------------
1961-07-10 10.5 14.0 6.9 3.5 72.5- 3.7 2.7---- 0.0------------
1961-07-09 10.5 14.1 8.8 5.7 88.3- 6.7 2.3---- 9.2------------
1961-07-08 13.7 17.1 6.2 1.5 60.5- 5.3 1.3---- 2.8------------
1961-07-07 9.1 12.2 6.8 4.4 76.5- 4.7 0.7---- 0.0------------
1961-07-06 8.8 12.2 5.4 3.9 77.0- 6.7 3.7---- 0.0------------
1961-07-05 8.6 13.0 6.8 7.1 74.0- 4.7 4.3---- 3.5------------
1961-07-04 15.7 22.1 12.2 13.2 72.3- 4.0 2.0---- 0.3------------
1961-07-03 22.6 27.0 17.5 10.5 51.0- 2.7 1.7---- 0.0------------
1961-07-02 20.3 26.1 15.5 9.6 64.3- 0.3 0.0---- 0.0------------
1961-07-01 18.7 24.6 12.0 7.1 67.0- 0.3 0.7---- 0.0------------
1961-06-30 16.6 22.1 8.9 4.1 67.0- 0.0 0.3---- 0.0------------
1961-06-29 13.4 17.9 8.2 7.2 71.0- 2.3 2.7---- 0.0------------
1961-06-28 9.5 16.3 7.8 8.8 75.3- 3.7 3.7---- 0.1------------
1961-06-27 18.5 24.1 15.6 12.2 85.8- 6.0 3.3---- 16.6------------
1961-06-26 18.6 23.2 15.4 11.2 77.0- 5.0 0.0---- 0.8------------
1961-06-25 20.7 25.0 14.2 7.4 59.0- 0.7 2.0---- 0.0------------
1961-06-24 16.4 21.5 12.0 6.5 65.0- 4.3 0.0---- 0.0------------
1961-06-23 15.0 19.2 11.2 8.1 73.3- 2.0 2.3---- 0.0------------
1961-06-22 18.5 22.3 6.9 2.7 68.0- 3.7 4.0---- 7.8------------
1961-06-21 14.2 20.0 7.6 2.6 69.8- 3.7 0.0---- 0.0------------
1961-06-20 10.5 14.8 7.1 3.0 78.8- 0.3 2.0---- 0.0------------
1961-06-19 12.9 20.0 10.1 8.9 88.5- 5.3 0.0---- 3.2------------
1961-06-18 19.5 22.9 10.8 5.7 57.8- 0.0 3.3---- 0.0------------
1961-06-17 13.4 18.0 6.6 4.9 71.8- 1.7 1.3---- 0.0------------
1961-06-16 9.9 15.0 5.2 0.8 84.3- 2.7 0.0---- 0.0------------
352.5 ms

 

Źródłem pochodzenia danych jest Instytut Meteorologii i Gospodarki Wodnej – Państwowy Instytut Badawczy. Dane Instytutu Meteorologii i Gospodarki Wodnej – Państwowego Instytutu Badawczego zostały przetworzone.

Dane źródłowe można odnaleźć na stronie https://dane.imgw.pl